createdAt,value
2022-10-31T00:04:12.966Z,2.85
2022-10-31T00:09:15.091Z,2.90
2022-10-31T00:14:17.117Z,2.40
2022-10-31T00:19:19.195Z,2.03
2022-10-31T00:24:21.277Z,2.22
2022-10-31T00:29:23.390Z,2.83
2022-10-31T00:34:25.501Z,2.42
2022-10-31T00:39:27.613Z,2.50
2022-10-31T00:44:29.677Z,2.97
2022-10-31T00:49:31.744Z,2.95
2022-10-31T00:54:34.071Z,3.15
2022-10-31T00:59:37.360Z,2.80
2022-10-31T01:04:40.028Z,3.37
2022-10-31T01:09:42.174Z,2.50
2022-10-31T01:14:45.822Z,2.42
2022-10-31T01:19:47.896Z,3.10
2022-10-31T01:24:50.002Z,3.47
2022-10-31T01:29:54.601Z,4.25
2022-10-31T01:34:56.678Z,3.47
2022-10-31T01:39:58.746Z,3.35
2022-10-31T01:45:02.369Z,2.10
2022-10-31T01:50:11.955Z,3.43
2022-10-31T01:55:18.951Z,3.57
2022-10-31T02:00:22.680Z,3.37
2022-10-31T02:05:26.476Z,3.67
2022-10-31T02:10:30.450Z,3.97
2022-10-31T02:15:33.982Z,2.83
2022-10-31T02:20:51.097Z,3.43
2022-10-31T02:26:12.411Z,3.33
2022-10-31T02:31:14.497Z,3.33
2022-10-31T02:36:25.412Z,3.45
2022-10-31T02:41:46.679Z,2.57
2022-10-31T02:46:58.853Z,3.50
2022-10-31T02:52:01.652Z,2.70
2022-10-31T02:57:08.122Z,2.45
2022-10-31T03:02:33.911Z,2.73
2022-10-31T03:07:51.952Z,2.80
2022-10-31T03:13:27.229Z,3.30
2022-10-31T03:18:52.572Z,2.33
2022-10-31T03:23:55.908Z,3.35
2022-10-31T03:29:08.935Z,3.00
2022-10-31T03:34:15.319Z,3.20
2022-10-31T03:39:21.233Z,3.77
2022-10-31T03:44:26.696Z,3.87
2022-10-31T03:49:32.907Z,4.60
2022-10-31T03:54:45.304Z,3.07
2022-10-31T04:00:08.045Z,3.70
2022-10-31T04:05:21.502Z,2.90
2022-10-31T04:10:31.821Z,2.80
2022-10-31T04:15:37.480Z,3.23
2022-10-31T04:20:41.699Z,3.10
2022-10-31T04:25:44.005Z,2.77
2022-10-31T04:30:46.258Z,3.15
2022-10-31T04:35:49.264Z,3.00
2022-10-31T04:40:51.534Z,3.33
2022-10-31T04:45:55.936Z,3.10
2022-10-31T04:51:02.577Z,3.83
2022-10-31T04:56:05.067Z,4.30
2022-10-31T05:01:08.469Z,4.13
2022-10-31T05:06:10.644Z,3.92
2022-10-31T05:11:15.112Z,3.60
2022-10-31T05:16:18.493Z,3.40
2022-10-31T05:21:22.808Z,4.00
2022-10-31T05:26:26.130Z,4.05
2022-10-31T05:31:29.006Z,1.70
2022-10-31T05:36:31.240Z,3.42
2022-10-31T05:41:33.575Z,2.05
2022-10-31T05:46:36.511Z,2.60
2022-10-31T05:51:43.292Z,2.05
2022-10-31T05:56:45.980Z,2.75
2022-10-31T06:01:48.085Z,2.92
2022-10-31T06:06:52.779Z,3.00
2022-10-31T06:11:55.256Z,3.80
2022-10-31T06:17:05.857Z,3.90
2022-10-31T06:22:12.394Z,5.30
2022-10-31T06:27:14.482Z,4.20
2022-10-31T06:37:19.658Z,3.90
2022-10-31T06:42:22.061Z,3.87
2022-10-31T06:47:24.444Z,2.78
2022-10-31T06:52:29.979Z,5.33
2022-10-31T06:57:32.252Z,4.25
2022-10-31T07:02:34.538Z,3.72
2022-10-31T07:12:39.306Z,3.17
2022-10-31T07:17:41.469Z,3.15
2022-10-31T07:22:49.628Z,3.62
2022-10-31T07:27:54.259Z,3.13
2022-10-31T07:32:56.698Z,3.42
2022-10-31T07:38:11.721Z,3.83
2022-10-31T07:43:14.915Z,3.30
2022-10-31T07:48:18.149Z,3.92
2022-10-31T07:53:25.264Z,3.83
2022-10-31T07:58:28.330Z,3.47
2022-10-31T08:03:34.083Z,3.87
2022-10-31T08:08:40.243Z,3.62
2022-10-31T08:13:43.889Z,3.72
2022-10-31T08:18:48.742Z,5.15
2022-10-31T08:28:55.718Z,4.97
2022-10-31T08:33:59.038Z,4.20
2022-10-31T08:39:11.904Z,4.40
2022-10-31T08:44:14.698Z,4.87
2022-10-31T08:49:18.841Z,4.93
2022-10-31T08:54:21.852Z,5.47
2022-10-31T08:59:30.453Z,4.97
2022-10-31T09:04:36.011Z,5.20
2022-10-31T09:09:38.490Z,5.70
2022-10-31T09:14:40.695Z,5.25
2022-10-31T09:19:43.964Z,6.15
2022-10-31T09:24:46.074Z,5.45
2022-10-31T09:29:48.287Z,6.50
2022-10-31T09:34:52.588Z,5.53
2022-10-31T09:39:54.833Z,5.60
2022-10-31T09:45:27.858Z,5.93
2022-10-31T09:50:52.997Z,4.80
2022-10-31T09:55:58.386Z,5.15
2022-10-31T10:01:04.029Z,4.80
2022-10-31T10:06:10.362Z,5.00
2022-10-31T10:11:51.509Z,6.35
2022-10-31T10:17:07.429Z,6.37
2022-10-31T10:22:28.307Z,6.45
2022-10-31T10:27:57.367Z,5.95
2022-10-31T10:33:04.209Z,7.32
2022-10-31T10:38:36.436Z,6.78
2022-10-31T10:43:39.050Z,6.70
2022-10-31T10:48:41.162Z,5.35
2022-10-31T10:54:14.604Z,7.90
2022-10-31T10:59:22.025Z,6.60
2022-10-31T11:04:30.046Z,7.35
2022-10-31T11:09:32.723Z,7.12
2022-10-31T11:14:53.614Z,6.40
2022-10-31T11:20:32.926Z,6.70
2022-10-31T11:25:35.115Z,7.30
2022-10-31T11:30:47.205Z,7.90
2022-10-31T11:35:53.462Z,7.37
2022-10-31T11:41:05.651Z,6.95
2022-10-31T11:46:13.244Z,7.03
2022-10-31T11:51:25.977Z,5.87
2022-10-31T11:56:28.160Z,7.03
2022-10-31T12:01:31.943Z,5.43
2022-10-31T12:06:37.878Z,6.55
2022-10-31T12:12:10.541Z,7.28
2022-10-31T12:17:26.064Z,6.20
2022-10-31T12:22:40.189Z,6.35
2022-10-31T12:28:13.736Z,7.30
2022-10-31T12:33:34.358Z,6.87
2022-10-31T12:38:52.611Z,6.82
2022-10-31T12:43:57.797Z,6.18
2022-10-31T12:49:28.901Z,6.37
2022-10-31T12:54:56.360Z,5.18
2022-10-31T13:00:04.478Z,4.95
2022-10-31T13:05:25.156Z,7.00
2022-10-31T13:10:39.122Z,6.75
2022-10-31T13:16:04.582Z,6.62
2022-10-31T13:21:16.152Z,5.87
2022-10-31T13:26:53.031Z,7.05
2022-10-31T13:31:55.369Z,8.88
2022-10-31T13:37:28.128Z,7.70
2022-10-31T13:42:58.692Z,7.70
2022-10-31T13:48:16.337Z,7.18
2022-10-31T13:53:22.463Z,7.12
2022-10-31T13:58:30.378Z,6.55
2022-10-31T14:04:03.299Z,6.37
2022-10-31T14:08:58.647Z,4.37
2022-10-31T14:14:01.851Z,6.20
2022-10-31T14:19:14.618Z,4.55
2022-10-31T14:24:25.786Z,4.45
2022-10-31T14:29:32.966Z,5.18
2022-10-31T14:34:41.963Z,4.32
2022-10-31T14:40:27.092Z,4.18
2022-10-31T14:45:35.111Z,3.97
2022-10-31T14:50:57.295Z,3.72
2022-10-31T14:56:04.313Z,3.65
2022-10-31T15:01:17.427Z,4.65
2022-10-31T15:06:22.916Z,3.50
2022-10-31T15:11:27.521Z,5.30
2022-10-31T15:16:36.318Z,4.57
2022-10-31T15:21:46.893Z,4.28
2022-10-31T15:26:51.573Z,3.75
2022-10-31T15:32:33.787Z,4.72
2022-10-31T15:37:35.899Z,4.97
2022-10-31T15:42:42.638Z,5.93
2022-10-31T15:47:56.234Z,7.65
2022-10-31T15:52:59.024Z,7.18
2022-10-31T15:58:16.107Z,6.18
2022-10-31T16:03:18.164Z,6.22
2022-10-31T16:08:26.360Z,7.45
2022-10-31T16:13:31.782Z,8.32
2022-10-31T16:18:37.747Z,8.50
2022-10-31T16:23:46.704Z,7.00
2022-10-31T16:29:04.725Z,7.55
2022-10-31T16:34:26.654Z,7.07
2022-10-31T16:39:29.047Z,7.40
2022-10-31T16:44:31.305Z,5.12
2022-10-31T16:49:33.404Z,6.82
2022-10-31T16:54:35.693Z,7.25
2022-10-31T16:59:40.924Z,6.22
2022-10-31T17:04:43.375Z,7.70
2022-10-31T17:09:45.655Z,8.95
2022-10-31T17:14:51.796Z,6.87
2022-10-31T17:19:55.268Z,5.87
2022-10-31T17:24:57.398Z,5.93
2022-10-31T17:29:59.427Z,6.35
2022-10-31T17:35:01.557Z,5.05
2022-10-31T17:40:03.828Z,5.90
2022-10-31T17:45:07.004Z,6.70
2022-10-31T17:50:09.456Z,6.78
2022-10-31T17:55:12.495Z,5.60
2022-10-31T18:00:18.334Z,6.30
2022-10-31T18:05:20.540Z,7.22
2022-10-31T18:10:22.601Z,7.00
2022-10-31T18:15:24.705Z,7.07
2022-10-31T18:20:26.854Z,5.95
2022-10-31T18:25:29.043Z,5.62
2022-10-31T18:30:31.319Z,6.05
2022-10-31T18:35:39.102Z,5.50
2022-10-31T18:40:41.292Z,6.10
2022-10-31T18:45:50.278Z,6.32
2022-10-31T18:50:57.795Z,7.62
2022-10-31T18:56:01.056Z,6.68
2022-10-31T19:01:11.599Z,7.35
2022-10-31T19:06:13.895Z,6.75
2022-10-31T19:11:16.267Z,5.45
2022-10-31T19:16:18.698Z,5.55
2022-10-31T19:21:20.725Z,5.65
2022-10-31T19:26:23.166Z,5.97
2022-10-31T19:31:25.326Z,6.12
2022-10-31T19:36:27.571Z,5.03
2022-10-31T19:41:29.984Z,5.87
2022-10-31T19:46:52.532Z,6.60
2022-10-31T19:51:54.151Z,6.62
2022-10-31T19:56:56.218Z,7.68
2022-10-31T20:01:58.264Z,8.43
2022-10-31T20:07:00.404Z,9.32
2022-10-31T20:12:02.486Z,9.80
2022-10-31T20:17:04.660Z,11.10
2022-10-31T20:22:06.973Z,9.80
2022-10-31T20:27:09.483Z,9.23
2022-10-31T20:32:11.566Z,8.23
2022-10-31T20:37:13.554Z,7.43
2022-10-31T20:42:15.550Z,8.40
2022-10-31T20:47:20.595Z,8.03
2022-10-31T20:52:25.547Z,8.88
2022-10-31T20:57:27.623Z,8.85
2022-10-31T21:02:30.170Z,10.20
2022-10-31T21:07:32.264Z,7.90
2022-10-31T21:12:34.353Z,7.75
2022-10-31T21:17:37.135Z,8.80
2022-10-31T21:27:41.393Z,7.22
2022-10-31T21:32:43.854Z,7.95
2022-10-31T21:37:45.857Z,7.78
2022-10-31T21:42:47.929Z,6.87
2022-10-31T21:47:50.467Z,10.23
2022-10-31T21:52:52.561Z,11.82
2022-10-31T21:57:54.631Z,9.40
2022-10-31T22:02:57.136Z,8.75
2022-10-31T22:07:59.953Z,8.85
2022-10-31T22:13:02.231Z,9.63
2022-10-31T22:18:04.604Z,9.87
2022-10-31T22:23:07.793Z,9.85
2022-10-31T22:28:09.932Z,9.50
2022-10-31T22:33:12.357Z,10.35
2022-10-31T22:38:14.507Z,11.48
2022-10-31T22:43:16.669Z,11.48
2022-10-31T22:48:18.733Z,10.95
2022-10-31T22:53:21.211Z,14.63
2022-10-31T22:58:23.338Z,13.18
2022-10-31T23:03:25.679Z,12.77
2022-10-31T23:08:29.458Z,11.48
2022-10-31T23:13:50.457Z,12.73
2022-10-31T23:18:52.523Z,12.77
2022-10-31T23:23:57.734Z,10.48
2022-10-31T23:28:59.868Z,11.50
2022-10-31T23:34:01.929Z,10.23
2022-10-31T23:39:04.318Z,9.18
2022-10-31T23:44:06.465Z,10.00
2022-10-31T23:49:08.788Z,9.13
2022-10-31T23:54:11.254Z,10.20
2022-10-31T23:59:13.404Z,9.65
